createdAt,value
2023-05-12T00:00:04.688Z,94792.69
2023-05-12T00:02:39.703Z,94803.22
2023-05-12T00:05:10.037Z,94791.16
2023-05-12T00:07:37.979Z,94803.75
2023-05-12T00:10:06.975Z,94791.78
2023-05-12T00:12:34.890Z,94788.13
2023-05-12T00:15:03.106Z,94791.31
2023-05-12T00:17:31.006Z,94796.53
2023-05-12T00:19:58.967Z,94784.00
2023-05-12T00:22:28.275Z,94785.50
2023-05-12T00:24:56.159Z,94782.09
2023-05-12T00:27:24.121Z,94782.91
2023-05-12T00:29:52.077Z,94785.44
2023-05-12T00:32:19.966Z,94779.66
2023-05-12T00:34:48.047Z,94788.00
2023-05-12T00:37:15.973Z,94774.91
2023-05-12T00:39:45.347Z,94782.28
2023-05-12T00:42:13.584Z,94774.97
2023-05-12T00:44:41.587Z,94774.97
2023-05-12T00:47:10.562Z,94770.31
2023-05-12T00:49:38.570Z,94772.13
2023-05-12T00:52:07.657Z,94769.75
2023-05-12T00:54:36.272Z,94772.28
2023-05-12T00:57:06.275Z,94771.31
2023-05-12T00:59:34.419Z,94762.75
2023-05-12T01:02:02.517Z,94766.75
2023-05-12T01:04:31.149Z,94756.25
2023-05-12T01:07:03.787Z,94761.97
2023-05-12T01:09:31.866Z,94759.91
2023-05-12T01:12:00.827Z,94754.34
2023-05-12T01:14:30.268Z,94758.81
2023-05-12T01:17:03.561Z,94755.16
2023-05-12T01:19:41.710Z,94749.44
2023-05-12T01:22:12.309Z,94752.59
2023-05-12T01:24:53.244Z,94760.53
2023-05-12T01:27:25.408Z,94754.81
2023-05-12T01:29:55.732Z,94752.91
2023-05-12T01:32:24.229Z,94751.66
2023-05-12T01:34:53.088Z,94756.81
2023-05-12T01:37:21.831Z,94754.38
2023-05-12T01:39:50.378Z,94757.22
2023-05-12T01:42:22.877Z,94752.13
2023-05-12T01:44:51.472Z,94747.53
2023-05-12T01:47:21.727Z,94741.84
2023-05-12T01:50:11.036Z,94742.94
2023-05-12T01:52:39.692Z,94742.66
2023-05-12T01:55:11.533Z,94740.13
2023-05-12T01:57:47.792Z,94744.88
2023-05-12T02:00:16.784Z,94741.22
2023-05-12T02:02:47.361Z,94737.56
2023-05-12T02:05:15.968Z,94734.41
2023-05-12T02:07:46.711Z,94734.91
2023-05-12T02:10:14.678Z,94736.16
2023-05-12T02:12:42.724Z,94735.94
2023-05-12T02:15:12.992Z,94741.72
2023-05-12T02:17:45.490Z,94740.13
2023-05-12T02:20:14.859Z,94729.34
2023-05-12T02:22:44.314Z,94730.03
2023-05-12T02:25:12.268Z,94732.53
2023-05-12T02:27:40.243Z,94726.50
2023-05-12T02:30:09.955Z,94728.09
2023-05-12T02:32:39.338Z,94726.25
2023-05-12T02:35:09.534Z,94721.28
2023-05-12T02:37:38.822Z,94732.75
2023-05-12T02:40:08.609Z,94724.44
2023-05-12T02:42:38.478Z,94725.84
2023-05-12T02:45:07.743Z,94724.50
2023-05-12T02:47:36.403Z,94722.50
2023-05-12T02:50:06.597Z,94722.88
2023-05-12T02:52:34.577Z,94724.72
2023-05-12T02:55:02.920Z,94733.41
2023-05-12T02:57:34.010Z,94724.72
2023-05-12T03:00:04.736Z,94725.34
2023-05-12T03:02:36.283Z,94719.66
2023-05-12T03:05:06.590Z,94716.00
2023-05-12T03:07:34.582Z,94717.59
2023-05-12T03:10:02.883Z,94722.81
2023-05-12T03:12:32.159Z,94718.06
2023-05-12T03:15:00.799Z,94720.91
2023-05-12T03:17:28.783Z,94719.34
2023-05-12T03:19:56.937Z,94719.66
2023-05-12T03:22:26.296Z,94714.41
2023-05-12T03:24:54.288Z,94710.16
2023-05-12T03:27:23.396Z,94714.03
2023-05-12T03:29:51.915Z,94704.59
2023-05-12T03:32:20.092Z,94706.63
2023-05-12T03:34:48.074Z,94709.97
2023-05-12T03:37:17.165Z,94709.34
2023-05-12T03:39:48.437Z,94707.47
2023-05-12T03:42:16.826Z,94713.09
2023-05-12T03:44:44.908Z,94716.63
2023-05-12T03:47:13.734Z,94716.06
2023-05-12T03:49:41.796Z,94707.88
2023-05-12T03:52:09.739Z,94712.16
2023-05-12T03:54:38.142Z,94710.25
2023-05-12T03:57:08.232Z,94707.56
2023-05-12T03:59:36.349Z,94699.19
2023-05-12T04:02:04.396Z,94702.44
2023-05-12T04:04:32.470Z,94700.47
2023-05-12T04:07:01.151Z,94705.22
2023-05-12T04:09:29.068Z,94698.41
2023-05-12T04:11:56.978Z,94693.09
2023-05-12T04:14:35.332Z,94692.16
2023-05-12T04:17:10.053Z,94700.00
2023-05-12T04:19:38.232Z,94698.72
2023-05-12T04:22:06.506Z,94700.38
2023-05-12T04:24:34.434Z,94701.06
2023-05-12T04:27:02.355Z,94696.19
2023-05-12T04:29:31.730Z,94699.84
2023-05-12T04:32:00.150Z,94703.13
2023-05-12T04:34:28.365Z,94707.69
2023-05-12T04:36:56.974Z,94698.34
2023-05-12T04:39:24.927Z,94707.63
2023-05-12T04:41:52.928Z,94714.84
2023-05-12T04:44:22.195Z,94711.06
2023-05-12T04:46:56.227Z,94704.59
2023-05-12T04:49:24.246Z,94721.06
2023-05-12T04:51:52.303Z,94718.19
2023-05-12T04:54:20.215Z,94715.66
2023-05-12T04:56:48.138Z,94717.56
2023-05-12T04:59:16.501Z,94709.50
2023-05-12T05:01:46.471Z,94714.28
2023-05-12T05:04:16.923Z,94718.53
2023-05-12T05:06:45.076Z,94705.00
2023-05-12T05:09:13.792Z,94708.72
2023-05-12T05:11:41.735Z,94718.69
2023-05-12T05:14:09.720Z,94715.59
2023-05-12T05:16:37.776Z,94722.75
2023-05-12T05:19:06.783Z,94718.06
2023-05-12T05:21:41.416Z,94722.03
2023-05-12T05:24:09.702Z,94717.59
2023-05-12T05:26:37.635Z,94736.50
2023-05-12T05:29:06.316Z,94732.78
2023-05-12T05:31:35.284Z,94733.59
2023-05-12T05:34:03.890Z,94733.91
2023-05-12T05:36:32.197Z,94737.41
2023-05-12T05:39:01.514Z,94732.97
2023-05-12T05:41:29.602Z,94733.38
2023-05-12T05:43:57.958Z,94733.03
2023-05-12T05:46:26.004Z,94728.56
2023-05-12T05:48:54.151Z,94733.44
2023-05-12T05:51:22.557Z,94728.50
2023-05-12T05:53:50.567Z,94739.72
2023-05-12T05:56:20.993Z,94739.84
2023-05-12T05:58:48.985Z,94743.66
2023-05-12T06:01:16.932Z,94738.47
2023-05-12T06:03:45.222Z,94732.97
2023-05-12T06:06:13.390Z,94741.75
2023-05-12T06:08:41.327Z,94734.84
2023-05-12T06:11:09.311Z,94741.19
2023-05-12T06:13:38.826Z,94746.47
2023-05-12T06:16:07.295Z,94739.81
2023-05-12T06:18:38.049Z,94747.91
2023-05-12T06:21:07.050Z,94744.41
2023-05-12T06:23:35.043Z,94743.72
2023-05-12T06:26:03.187Z,94749.00
2023-05-12T06:28:31.111Z,94747.06
2023-05-12T06:31:00.965Z,94741.47
2023-05-12T06:33:28.993Z,94749.72
2023-05-12T06:35:57.516Z,94742.91
2023-05-12T06:38:26.480Z,94750.81
2023-05-12T06:40:54.472Z,94743.91
2023-05-12T06:43:23.372Z,94745.19
2023-05-12T06:45:56.873Z,94747.94
2023-05-12T06:48:26.391Z,94747.03
2023-05-12T06:50:58.330Z,94747.66
2023-05-12T06:53:30.326Z,94739.84
2023-05-12T06:55:58.943Z,94746.22
2023-05-12T06:58:26.933Z,94740.50
2023-05-12T07:00:54.897Z,94743.03
2023-05-12T07:03:22.836Z,94740.50
2023-05-12T07:05:52.476Z,94735.78
2023-05-12T07:08:20.775Z,94732.09
2023-05-12T07:10:48.804Z,94736.69
2023-05-12T07:13:16.824Z,94735.25
2023-05-12T07:15:44.936Z,94735.25
2023-05-12T07:18:13.024Z,94735.91
2023-05-12T07:20:41.043Z,94741.72
2023-05-12T07:23:10.533Z,94739.38
2023-05-12T07:25:39.279Z,94737.81
2023-05-12T07:28:07.318Z,94727.63
2023-05-12T07:30:35.297Z,94722.94
2023-05-12T07:33:03.241Z,94720.94
2023-05-12T07:35:31.507Z,94723.97
2023-05-12T07:37:59.472Z,94721.13
2023-05-12T07:40:28.818Z,94719.78
2023-05-12T07:42:56.783Z,94718.56
2023-05-12T07:45:25.321Z,94717.06
2023-05-12T07:47:53.345Z,94730.88
2023-05-12T07:50:21.719Z,94720.19
2023-05-12T07:52:50.489Z,94717.34
2023-05-12T07:55:19.440Z,94714.81
2023-05-12T07:57:50.314Z,94720.06
2023-05-12T08:00:18.800Z,94719.03
2023-05-12T08:02:47.190Z,94717.94
2023-05-12T08:05:15.758Z,94713.09
2023-05-12T08:07:44.494Z,94711.94
2023-05-12T08:10:13.096Z,94711.94
2023-05-12T08:12:42.070Z,94712.03
2023-05-12T08:15:12.203Z,94708.22
2023-05-12T08:17:40.227Z,94707.44
2023-05-12T08:20:09.211Z,94711.13
2023-05-12T08:22:37.127Z,94707.97
2023-05-12T08:25:06.222Z,94713.16
2023-05-12T08:27:34.123Z,94710.72
2023-05-12T08:30:02.040Z,94707.34
2023-05-12T08:32:31.975Z,94705.47
2023-05-12T08:34:59.948Z,94701.13
2023-05-12T08:37:28.219Z,94697.47
2023-05-12T08:39:56.365Z,94703.69
2023-05-12T08:42:32.378Z,94705.13
2023-05-12T08:45:01.588Z,94696.28
2023-05-12T08:47:33.499Z,94691.69
2023-05-12T08:50:03.421Z,94688.38
2023-05-12T08:52:34.169Z,94689.56
2023-05-12T08:55:03.417Z,94683.25
2023-05-12T08:57:32.419Z,94682.97
2023-05-12T09:00:00.481Z,94694.81
2023-05-12T09:02:41.322Z,94689.81
2023-05-12T09:05:20.175Z,94693.72
2023-05-12T09:07:50.820Z,94697.66
2023-05-12T09:10:33.663Z,94708.47
2023-05-12T09:13:05.784Z,94700.81
2023-05-12T09:15:37.493Z,94706.06
2023-05-12T09:18:07.179Z,94701.38
2023-05-12T09:20:35.435Z,94700.88
2023-05-12T09:23:16.723Z,94696.66
2023-05-12T09:25:44.815Z,94693.50
2023-05-12T09:28:12.782Z,94688.31
2023-05-12T09:30:42.502Z,94689.88
2023-05-12T09:33:13.981Z,94696.19
2023-05-12T09:35:43.043Z,94692.03
2023-05-12T09:38:12.321Z,94683.09
2023-05-12T09:40:41.007Z,94683.69
2023-05-12T09:43:09.701Z,94676.34
2023-05-12T09:45:38.957Z,94688.47
2023-05-12T09:48:12.585Z,94673.69
2023-05-12T09:50:48.675Z,94677.44
2023-05-12T09:53:18.393Z,94673.75
2023-05-12T09:55:47.129Z,94681.63
2023-05-12T09:58:17.648Z,94677.41
2023-05-12T10:03:22.098Z,94676.84
2023-05-12T10:05:51.760Z,94686.31
2023-05-12T10:08:25.688Z,94682.13
2023-05-12T10:10:56.518Z,94682.66
2023-05-12T10:13:26.332Z,94684.50
2023-05-12T10:15:57.387Z,94684.72
2023-05-12T10:18:27.487Z,94684.19
2023-05-12T10:20:56.859Z,94682.13
2023-05-12T10:23:26.802Z,94681.59
2023-05-12T10:25:58.563Z,94670.00
2023-05-12T10:28:26.573Z,94671.09
2023-05-12T10:30:55.286Z,94661.88
2023-05-12T10:33:23.214Z,94663.19
2023-05-12T10:35:53.276Z,94655.81
2023-05-12T10:38:21.266Z,94653.72
2023-05-12T10:40:58.153Z,94655.28
2023-05-12T10:43:28.699Z,94649.00
2023-05-12T10:46:10.812Z,94651.84
2023-05-12T10:48:52.736Z,94641.28
2023-05-12T10:51:23.828Z,94634.41
2023-05-12T10:53:58.321Z,94632.81
2023-05-12T10:56:29.650Z,94634.34
2023-05-12T10:59:08.992Z,94632.56
2023-05-12T11:01:37.878Z,94642.56
2023-05-12T11:04:17.481Z,94632.59
2023-05-12T11:06:47.606Z,94635.13
2023-05-12T11:09:18.292Z,94632.97
2023-05-12T11:11:47.677Z,94631.44
2023-05-12T11:14:16.117Z,94629.34
2023-05-12T11:16:44.681Z,94627.66
2023-05-12T11:19:13.554Z,94625.50
2023-05-12T11:21:42.051Z,94630.78
2023-05-12T11:24:14.421Z,94632.41
2023-05-12T11:26:42.430Z,94620.91
2023-05-12T11:29:10.458Z,94625.41
2023-05-12T11:31:39.690Z,94613.44
2023-05-12T11:34:13.133Z,94616.50
2023-05-12T11:36:43.623Z,94619.19
2023-05-12T11:39:17.543Z,94610.66
2023-05-12T11:41:46.066Z,94611.69
2023-05-12T11:44:15.478Z,94612.72
2023-05-12T11:46:43.732Z,94609.56
2023-05-12T11:49:13.693Z,94614.41
2023-05-12T11:51:44.669Z,94610.78
2023-05-12T11:54:12.670Z,94606.00
2023-05-12T11:56:49.135Z,94605.44
2023-05-12T11:59:28.200Z,94600.59
2023-05-12T12:01:56.388Z,94588.94
2023-05-12T12:04:40.434Z,94595.00
2023-05-12T12:07:09.685Z,94599.84
2023-05-12T12:09:40.647Z,94602.38
2023-05-12T12:12:12.221Z,94594.47
2023-05-12T12:14:41.630Z,94591.59
2023-05-12T12:17:09.651Z,94585.00
2023-05-12T12:19:37.631Z,94586.56
2023-05-12T12:22:06.252Z,94585.47
2023-05-12T12:24:34.270Z,94589.09
2023-05-12T12:27:02.179Z,94581.81
2023-05-12T12:29:31.686Z,94587.16
2023-05-12T12:31:59.658Z,94587.31
2023-05-12T12:34:27.702Z,94582.59
2023-05-12T12:36:55.954Z,94590.94
2023-05-12T12:39:24.171Z,94588.00
2023-05-12T12:41:52.092Z,94595.41
2023-05-12T12:44:19.980Z,94596.97
2023-05-12T12:46:49.398Z,94594.31
2023-05-12T12:49:17.374Z,94597.91
2023-05-12T12:51:46.668Z,94593.44
2023-05-12T12:54:15.936Z,94592.91
2023-05-12T12:56:45.263Z,94588.41
2023-05-12T12:59:13.162Z,94583.78
2023-05-12T13:01:41.187Z,94587.78
2023-05-12T13:04:10.548Z,94589.53
2023-05-12T13:06:38.537Z,94595.31
2023-05-12T13:09:06.444Z,94591.38
2023-05-12T13:11:34.524Z,94590.06
2023-05-12T13:14:04.427Z,94583.66
2023-05-12T13:16:32.471Z,94585.78
2023-05-12T13:19:00.512Z,94577.84
2023-05-12T13:21:29.990Z,94588.34
2023-05-12T13:23:57.887Z,94583.63
2023-05-12T13:26:25.918Z,94585.09
2023-05-12T13:28:53.894Z,94594.06
2023-05-12T13:31:22.066Z,94593.88
2023-05-12T13:33:50.068Z,94580.19
2023-05-12T13:36:18.002Z,94579.09
2023-05-12T13:38:47.284Z,94574.81
2023-05-12T13:41:15.334Z,94572.19
2023-05-12T13:43:43.770Z,94582.47
2023-05-12T13:46:11.767Z,94573.22
2023-05-12T13:48:39.730Z,94578.44
2023-05-12T13:51:07.689Z,94572.66
2023-05-12T13:53:38.478Z,94581.09
2023-05-12T13:56:17.542Z,94572.09
2023-05-12T13:58:45.810Z,94564.19
2023-05-12T14:01:14.017Z,94567.94
2023-05-12T14:03:42.841Z,94568.97
2023-05-12T14:06:12.073Z,94565.75
2023-05-12T14:08:41.537Z,94558.84
2023-05-12T14:11:10.237Z,94564.53
2023-05-12T14:13:39.578Z,94570.31
2023-05-12T14:16:08.202Z,94571.00
2023-05-12T14:18:36.185Z,94564.75
2023-05-12T14:21:04.233Z,94567.94
2023-05-12T14:23:32.181Z,94560.66
2023-05-12T14:26:00.168Z,94561.66
2023-05-12T14:28:29.010Z,94561.78
2023-05-12T14:30:58.412Z,94565.13
2023-05-12T14:33:26.799Z,94564.19
2023-05-12T14:36:05.859Z,94559.75
2023-05-12T14:38:35.751Z,94561.59
2023-05-12T14:41:04.024Z,94561.94
2023-05-12T14:43:31.949Z,94556.44
2023-05-12T14:46:02.348Z,94563.38
2023-05-12T14:48:30.468Z,94558.97
2023-05-12T14:50:59.207Z,94564.00
2023-05-12T14:53:27.430Z,94562.41
2023-05-12T14:55:55.385Z,94574.63
2023-05-12T14:58:24.284Z,94573.91
2023-05-12T15:00:52.907Z,94574.47
2023-05-12T15:03:22.415Z,94574.72
2023-05-12T15:06:05.609Z,94576.03
2023-05-12T15:08:34.648Z,94588.78
2023-05-12T15:11:02.583Z,94587.03
2023-05-12T15:13:30.656Z,94593.41
2023-05-12T15:15:58.700Z,94599.78
2023-05-12T15:18:28.142Z,94593.50
2023-05-12T15:20:56.094Z,94592.44
2023-05-12T15:23:24.058Z,94590.38
2023-05-12T15:25:51.978Z,94595.38
2023-05-12T15:28:20.929Z,94592.47
2023-05-12T15:30:56.084Z,94600.41
2023-05-12T15:33:24.210Z,94592.53
2023-05-12T15:35:53.584Z,94589.38
2023-05-12T15:38:21.486Z,94590.19
2023-05-12T15:40:49.375Z,94592.25
2023-05-12T15:43:18.152Z,94586.75
2023-05-12T15:45:46.258Z,94591.78
2023-05-12T15:48:14.237Z,94585.72
2023-05-12T15:50:42.175Z,94594.69
2023-05-12T15:53:11.497Z,94586.03
2023-05-12T15:55:39.508Z,94602.06
2023-05-12T15:58:08.308Z,94594.16
2023-05-12T16:00:36.378Z,94598.91
2023-05-12T16:03:04.424Z,94600.50
2023-05-12T16:05:34.103Z,94600.50
2023-05-12T16:08:02.044Z,94600.22
2023-05-12T16:10:31.309Z,94607.81
2023-05-12T16:12:59.207Z,94600.44
2023-05-12T16:15:27.390Z,94599.94
2023-05-12T16:17:55.328Z,94598.34
2023-05-12T16:20:23.232Z,94601.50
2023-05-12T16:22:51.327Z,94605.19
2023-05-12T16:25:20.220Z,94599.38
2023-05-12T16:27:49.722Z,94608.84
2023-05-12T16:30:19.881Z,94614.84
2023-05-12T16:32:48.426Z,94612.97
2023-05-12T16:35:16.485Z,94617.66
2023-05-12T16:37:44.425Z,94609.66
2023-05-12T16:40:12.807Z,94611.59
2023-05-12T16:42:40.772Z,94605.56
2023-05-12T16:45:12.003Z,94607.44
2023-05-12T16:47:39.970Z,94602.72
2023-05-12T16:50:09.457Z,94618.06
2023-05-12T16:52:37.334Z,94614.91
2023-05-12T16:55:05.782Z,94616.25
2023-05-12T16:57:34.287Z,94612.28
2023-05-12T17:00:05.351Z,94612.88
2023-05-12T17:02:34.783Z,94614.50
2023-05-12T17:05:02.833Z,94621.41
2023-05-12T17:07:31.100Z,94625.66
2023-05-12T17:09:59.043Z,94653.69
2023-05-12T17:12:27.145Z,94655.81
2023-05-12T17:15:06.283Z,94677.09
2023-05-12T17:17:37.332Z,94683.59
2023-05-12T17:20:06.609Z,94676.78
2023-05-12T17:22:37.303Z,94677.28
2023-05-12T17:25:05.893Z,94672.25
2023-05-12T17:27:33.807Z,94679.06
2023-05-12T17:30:04.131Z,94681.97
2023-05-12T17:32:32.768Z,94681.88
2023-05-12T17:35:02.216Z,94664.56
2023-05-12T17:37:30.438Z,94666.66
2023-05-12T17:39:59.353Z,94675.06
2023-05-12T17:42:29.935Z,94671.38
2023-05-12T17:44:58.287Z,94677.16
2023-05-12T17:47:26.624Z,94681.88
2023-05-12T17:49:54.717Z,94675.50
2023-05-12T17:52:24.021Z,94677.94
2023-05-12T17:54:55.729Z,94667.88
2023-05-12T17:57:23.737Z,94674.72
2023-05-12T17:59:52.158Z,94683.09
2023-05-12T18:02:20.155Z,94678.38
2023-05-12T18:04:48.553Z,94685.28
2023-05-12T18:07:16.493Z,94676.91
2023-05-12T18:09:45.796Z,94680.06
2023-05-12T18:12:14.067Z,94688.47
2023-05-12T18:14:41.973Z,94683.25
2023-05-12T18:17:10.016Z,94693.19
2023-05-12T18:19:37.943Z,94685.81
2023-05-12T18:22:06.268Z,94688.16
2023-05-12T18:24:34.221Z,94683.41
2023-05-12T18:27:05.859Z,94685.75
2023-05-12T18:29:34.375Z,94686.19
2023-05-12T18:32:02.252Z,94691.09
2023-05-12T18:34:30.193Z,94684.72
2023-05-12T18:36:58.131Z,94688.84
2023-05-12T18:39:26.167Z,94680.69
2023-05-12T18:41:55.348Z,94695.91
2023-05-12T18:44:24.805Z,94687.66
2023-05-12T18:46:52.798Z,94700.88
2023-05-12T18:49:20.814Z,94707.75
2023-05-12T18:51:48.704Z,94713.53
2023-05-12T18:54:16.621Z,94703.53
2023-05-12T18:56:44.567Z,94711.88
2023-05-12T18:59:12.539Z,94714.66
2023-05-12T19:01:42.258Z,94712.53
2023-05-12T19:04:10.254Z,94719.94
2023-05-12T19:06:38.500Z,94717.28
2023-05-12T19:09:06.436Z,94724.84
2023-05-12T19:11:34.375Z,94729.28
2023-05-12T19:14:02.265Z,94733.47
2023-05-12T19:16:31.944Z,94726.34
2023-05-12T19:19:03.046Z,94739.31
2023-05-12T19:21:32.400Z,94738.72
2023-05-12T19:24:01.152Z,94749.31
2023-05-12T19:26:29.321Z,94752.78
2023-05-12T19:28:57.352Z,94751.56
2023-05-12T19:31:25.426Z,94755.25
2023-05-12T19:33:53.490Z,94764.47
2023-05-12T19:36:22.804Z,94768.91
2023-05-12T19:38:50.698Z,94756.06
2023-05-12T19:41:18.678Z,94767.03
2023-05-12T19:43:46.648Z,94770.31
2023-05-12T19:46:15.111Z,94763.97
2023-05-12T19:48:43.416Z,94773.25
2023-05-12T19:51:11.434Z,94773.38
2023-05-12T19:53:41.130Z,94781.28
2023-05-12T19:56:09.109Z,94775.53
2023-05-12T19:58:37.004Z,94776.03
2023-05-12T20:01:05.143Z,94781.28
2023-05-12T20:03:33.223Z,94789.09
2023-05-12T20:06:01.258Z,94786.41
2023-05-12T20:08:29.258Z,94792.09
2023-05-12T20:10:58.705Z,94791.56
2023-05-12T20:13:26.598Z,94792.00
2023-05-12T20:15:55.883Z,94792.00
2023-05-12T20:18:24.030Z,94800.75
2023-05-12T20:20:52.086Z,94807.88
2023-05-12T20:23:19.993Z,94802.13
2023-05-12T20:25:48.055Z,94803.72
2023-05-12T20:28:17.355Z,94806.09
2023-05-12T20:30:45.308Z,94808.50
2023-05-12T20:33:13.237Z,94803.63
2023-05-12T20:35:41.136Z,94809.31
2023-05-12T20:38:09.166Z,94812.97
2023-05-12T20:40:37.116Z,94812.84
2023-05-12T20:43:05.025Z,94816.63
2023-05-12T20:45:34.507Z,94824.38
2023-05-12T20:48:02.949Z,94820.56
2023-05-12T20:50:30.958Z,94830.53
2023-05-12T20:52:58.947Z,94832.13
2023-05-12T20:55:27.032Z,94832.13
2023-05-12T20:57:55.306Z,94827.94
2023-05-12T21:00:23.383Z,94831.88
2023-05-12T21:02:52.749Z,94839.25
2023-05-12T21:05:21.161Z,94840.84
2023-05-12T21:07:49.312Z,94837.97
2023-05-12T21:10:17.212Z,94839.84
2023-05-12T21:12:45.204Z,94842.22
2023-05-12T21:15:13.161Z,94834.34
2023-05-12T21:17:41.736Z,94841.13
2023-05-12T21:20:12.986Z,94833.03
2023-05-12T21:22:41.632Z,94837.97
2023-05-12T21:25:10.307Z,94840.03
2023-05-12T21:27:40.639Z,94840.03
2023-05-12T21:30:10.189Z,94836.38
2023-05-12T21:32:38.360Z,94843.69
2023-05-12T21:35:07.305Z,94844.19
2023-05-12T21:37:36.855Z,94840.25
2023-05-12T21:40:05.756Z,94837.63
2023-05-12T21:42:33.679Z,94826.88
2023-05-12T21:45:01.593Z,94835.00
2023-05-12T21:47:29.579Z,94829.47
2023-05-12T21:49:57.804Z,94843.03
2023-05-12T21:52:26.073Z,94845.59
2023-05-12T21:54:55.378Z,94845.84
2023-05-12T21:57:23.257Z,94843.47
2023-05-12T21:59:51.304Z,94840.31
2023-05-12T22:02:19.286Z,94848.16
2023-05-12T22:04:47.956Z,94861.72
2023-05-12T22:07:15.896Z,94860.16
2023-05-12T22:09:44.675Z,94861.19
2023-05-12T22:12:17.583Z,94856.75
2023-05-12T22:14:45.672Z,94864.59
2023-05-12T22:17:13.694Z,94864.34
2023-05-12T22:19:41.628Z,94866.50
2023-05-12T22:22:09.688Z,94865.22
2023-05-12T22:24:37.602Z,94872.84
2023-05-12T22:27:05.719Z,94866.03
2023-05-12T22:29:35.028Z,94864.44
2023-05-12T22:32:02.972Z,94867.47
2023-05-12T22:34:30.898Z,94872.56
2023-05-12T22:36:58.896Z,94871.53
2023-05-12T22:39:26.919Z,94867.63
2023-05-12T22:41:54.858Z,94878.41
2023-05-12T22:44:22.752Z,94880.66
2023-05-12T22:46:52.080Z,94884.13
2023-05-12T22:49:20.031Z,94881.25
2023-05-12T22:51:48.029Z,94874.97
2023-05-12T22:54:15.962Z,94877.59
2023-05-12T22:56:44.815Z,94878.38
2023-05-12T22:59:12.900Z,94884.91
2023-05-12T23:01:40.943Z,94882.28
2023-05-12T23:04:10.395Z,94886.50
2023-05-12T23:06:38.390Z,94886.50
2023-05-12T23:09:06.366Z,94881.75
2023-05-12T23:11:34.369Z,94884.31
2023-05-12T23:14:02.504Z,94885.91
2023-05-12T23:16:30.559Z,94889.06
2023-05-12T23:18:58.539Z,94887.47
2023-05-12T23:21:27.902Z,94887.47
2023-05-12T23:23:55.821Z,94889.06
2023-05-12T23:26:23.818Z,94890.00
2023-05-12T23:28:51.756Z,94887.47
2023-05-12T23:31:19.734Z,94888.56
2023-05-12T23:33:47.728Z,94892.22
2023-05-12T23:36:15.844Z,94891.13
2023-05-12T23:38:45.125Z,94891.44
2023-05-12T23:41:13.090Z,94892.22
2023-05-12T23:43:42.309Z,94884.91
2023-05-12T23:46:10.282Z,94888.09
2023-05-12T23:48:38.212Z,94888.56
2023-05-12T23:51:06.152Z,94887.00
2023-05-12T23:53:34.112Z,94887.00
2023-05-12T23:56:04.039Z,94891.69
2023-05-12T23:58:31.982Z,94885.91
